sensor_id;sensor_type;location;lat;lon;timestamp;temperature;humidity
64209;DHT22;50527;52.414;13.226;2022-09-13T00:01:17;12.40;99.90
64209;DHT22;50527;52.414;13.226;2022-09-13T00:03:42;12.40;99.90
64209;DHT22;50527;52.414;13.226;2022-09-13T00:06:10;12.40;99.90
64209;DHT22;50527;52.414;13.226;2022-09-13T00:08:36;12.40;99.90
64209;DHT22;50527;52.414;13.226;2022-09-13T00:11:02;12.50;99.90
64209;DHT22;50527;52.414;13.226;2022-09-13T00:13:28;12.50;99.90
64209;DHT22;50527;52.414;13.226;2022-09-13T00:15:53;12.50;99.90
64209;DHT22;50527;52.414;13.226;2022-09-13T00:18:18;12.50;99.90
64209;DHT22;50527;52.414;13.226;2022-09-13T00:20:44;12.50;99.90
64209;DHT22;50527;52.414;13.226;2022-09-13T00:23:11;12.50;99.90
64209;DHT22;50527;52.414;13.226;2022-09-13T00:25:37;12.50;99.90
64209;DHT22;50527;52.414;13.226;2022-09-13T00:28:03;12.50;99.90
64209;DHT22;50527;52.414;13.226;2022-09-13T00:30:29;12.40;99.90
64209;DHT22;50527;52.414;13.226;2022-09-13T00:32:55;12.40;99.90
64209;DHT22;50527;52.414;13.226;2022-09-13T00:35:20;12.30;99.90
64209;DHT22;50527;52.414;13.226;2022-09-13T00:37:46;12.20;99.90
64209;DHT22;50527;52.414;13.226;2022-09-13T00:40:12;12.10;99.90
64209;DHT22;50527;52.414;13.226;2022-09-13T00:42:37;12.10;99.90
64209;DHT22;50527;52.414;13.226;2022-09-13T00:47:59;12.20;99.90
64209;DHT22;50527;52.414;13.226;2022-09-13T00:50:34;12.20;99.90
64209;DHT22;50527;52.414;13.226;2022-09-13T00:53:13;12.20;99.90
64209;DHT22;50527;52.414;13.226;2022-09-13T00:55:48;12.20;99.90
64209;DHT22;50527;52.414;13.226;2022-09-13T00:58:19;12.20;99.90
64209;DHT22;50527;52.414;13.226;2022-09-13T01:00:46;12.20;99.90
64209;DHT22;50527;52.414;13.226;2022-09-13T01:03:12;12.20;99.90
64209;DHT22;50527;52.414;13.226;2022-09-13T01:05:45;12.20;99.90
64209;DHT22;50527;52.414;13.226;2022-09-13T01:08:12;12.10;99.90
64209;DHT22;50527;52.414;13.226;2022-09-13T01:10:44;12.10;99.90
64209;DHT22;50527;52.414;13.226;2022-09-13T01:13:20;12.10;99.90
64209;DHT22;50527;52.414;13.226;2022-09-13T01:15:46;12.10;99.90
64209;DHT22;50527;52.414;13.226;2022-09-13T01:18:12;12.00;99.90
64209;DHT22;50527;52.414;13.226;2022-09-13T01:21:24;12.00;99.90
64209;DHT22;50527;52.414;13.226;2022-09-13T01:27:30;12.00;99.90
64209;DHT22;50527;52.414;13.226;2022-09-13T01:30:13;12.00;99.90
64209;DHT22;50527;52.414;13.226;2022-09-13T01:32:56;12.00;99.90
64209;DHT22;50527;52.414;13.226;2022-09-13T01:35:42;12.00;99.90
64209;DHT22;50527;52.414;13.226;2022-09-13T01:38:30;12.00;99.90
64209;DHT22;50527;52.414;13.226;2022-09-13T01:43:55;11.90;99.90
64209;DHT22;50527;52.414;13.226;2022-09-13T01:46:38;11.90;99.90
64209;DHT22;50527;52.414;13.226;2022-09-13T01:51:53;11.70;99.90
64209;DHT22;50527;52.414;13.226;2022-09-13T01:54:38;11.70;99.90
64209;DHT22;50527;52.414;13.226;2022-09-13T01:59:48;11.70;99.90
64209;DHT22;50527;52.414;13.226;2022-09-13T02:02:28;11.70;99.90
64209;DHT22;50527;52.414;13.226;2022-09-13T02:05:03;11.70;99.90
64209;DHT22;50527;52.414;13.226;2022-09-13T02:07:34;11.70;99.90
64209;DHT22;50527;52.414;13.226;2022-09-13T02:10:07;11.70;99.90
64209;DHT22;50527;52.414;13.226;2022-09-13T02:12:35;11.70;99.90
64209;DHT22;50527;52.414;13.226;2022-09-13T02:15:19;11.60;99.90
64209;DHT22;50527;52.414;13.226;2022-09-13T02:17:51;11.60;99.90
64209;DHT22;50527;52.414;13.226;2022-09-13T02:20:26;11.70;99.90
64209;DHT22;50527;52.414;13.226;2022-09-13T02:22:56;11.70;99.90
64209;DHT22;50527;52.414;13.226;2022-09-13T02:25:24;11.70;99.90
64209;DHT22;50527;52.414;13.226;2022-09-13T02:27:53;11.60;99.90
64209;DHT22;50527;52.414;13.226;2022-09-13T02:30:23;11.60;99.90
64209;DHT22;50527;52.414;13.226;2022-09-13T02:32:55;11.50;99.90
64209;DHT22;50527;52.414;13.226;2022-09-13T02:35:31;11.50;99.90
64209;DHT22;50527;52.414;13.226;2022-09-13T02:38:13;11.60;99.90
64209;DHT22;50527;52.414;13.226;2022-09-13T02:41:04;11.50;99.90
64209;DHT22;50527;52.414;13.226;2022-09-13T02:43:42;11.50;99.90
64209;DHT22;50527;52.414;13.226;2022-09-13T02:46:28;11.50;99.90
64209;DHT22;50527;52.414;13.226;2022-09-13T02:52:08;11.50;99.90
64209;DHT22;50527;52.414;13.226;2022-09-13T02:54:52;11.50;99.90
64209;DHT22;50527;52.414;13.226;2022-09-13T02:57:30;11.50;99.90
64209;DHT22;50527;52.414;13.226;2022-09-13T02:59:57;11.50;99.90
64209;DHT22;50527;52.414;13.226;2022-09-13T03:02:27;11.50;99.90
64209;DHT22;50527;52.414;13.226;2022-09-13T03:04:55;11.50;99.90
64209;DHT22;50527;52.414;13.226;2022-09-13T03:07:22;11.50;99.90
64209;DHT22;50527;52.414;13.226;2022-09-13T03:09:52;11.40;99.90
64209;DHT22;50527;52.414;13.226;2022-09-13T03:15:36;11.50;99.90
64209;DHT22;50527;52.414;13.226;2022-09-13T03:18:28;11.40;99.90
64209;DHT22;50527;52.414;13.226;2022-09-13T03:26:40;11.40;99.90
64209;DHT22;50527;52.414;13.226;2022-09-13T03:29:10;11.40;99.90
64209;DHT22;50527;52.414;13.226;2022-09-13T03:31:56;11.40;99.90
64209;DHT22;50527;52.414;13.226;2022-09-13T03:34:34;11.30;99.90
64209;DHT22;50527;52.414;13.226;2022-09-13T03:37:22;11.40;99.90
64209;DHT22;50527;52.414;13.226;2022-09-13T03:40:06;11.30;99.90
64209;DHT22;50527;52.414;13.226;2022-09-13T03:42:51;11.30;99.90
64209;DHT22;50527;52.414;13.226;2022-09-13T03:45:29;11.30;99.90
64209;DHT22;50527;52.414;13.226;2022-09-13T03:47:56;11.30;99.90
64209;DHT22;50527;52.414;13.226;2022-09-13T03:50:24;11.30;99.90
64209;DHT22;50527;52.414;13.226;2022-09-13T03:52:55;11.30;99.90
64209;DHT22;50527;52.414;13.226;2022-09-13T03:55:21;11.30;99.90
64209;DHT22;50527;52.414;13.226;2022-09-13T03:57:47;11.30;99.90
64209;DHT22;50527;52.414;13.226;2022-09-13T04:00:13;11.40;99.90
64209;DHT22;50527;52.414;13.226;2022-09-13T04:02:39;11.40;99.90
64209;DHT22;50527;52.414;13.226;2022-09-13T04:05:05;11.40;99.90
64209;DHT22;50527;52.414;13.226;2022-09-13T04:07:31;11.40;99.90
64209;DHT22;50527;52.414;13.226;2022-09-13T04:09:56;11.40;99.90
64209;DHT22;50527;52.414;13.226;2022-09-13T04:12:22;11.50;99.90
64209;DHT22;50527;52.414;13.226;2022-09-13T04:14:47;11.50;99.90
64209;DHT22;50527;52.414;13.226;2022-09-13T04:17:13;11.60;99.90
64209;DHT22;50527;52.414;13.226;2022-09-13T04:19:39;11.60;99.90
64209;DHT22;50527;52.414;13.226;2022-09-13T04:22:04;11.60;99.90
64209;DHT22;50527;52.414;13.226;2022-09-13T04:24:30;11.70;99.90
64209;DHT22;50527;52.414;13.226;2022-09-13T04:26:56;11.70;99.90
64209;DHT22;50527;52.414;13.226;2022-09-13T04:29:23;11.70;99.90
64209;DHT22;50527;52.414;13.226;2022-09-13T04:31:50;11.80;99.90
64209;DHT22;50527;52.414;13.226;2022-09-13T04:34:16;11.80;99.90
64209;DHT22;50527;52.414;13.226;2022-09-13T04:36:44;11.80;99.90
64209;DHT22;50527;52.414;13.226;2022-09-13T04:39:10;11.80;99.90
64209;DHT22;50527;52.414;13.226;2022-09-13T04:41:35;11.90;99.90
64209;DHT22;50527;52.414;13.226;2022-09-13T04:44:01;11.90;99.90
64209;DHT22;50527;52.414;13.226;2022-09-13T04:46:28;11.90;99.90
64209;DHT22;50527;52.414;13.226;2022-09-13T04:48:54;12.00;99.90
64209;DHT22;50527;52.414;13.226;2022-09-13T04:51:20;12.00;99.90
64209;DHT22;50527;52.414;13.226;2022-09-13T04:53:52;12.10;99.90
64209;DHT22;50527;52.414;13.226;2022-09-13T04:56:22;12.20;99.90
64209;DHT22;50527;52.414;13.226;2022-09-13T04:58:49;12.20;99.90
64209;DHT22;50527;52.414;13.226;2022-09-13T05:01:15;12.30;99.90
64209;DHT22;50527;52.414;13.226;2022-09-13T05:03:41;12.40;99.90
64209;DHT22;50527;52.414;13.226;2022-09-13T05:06:09;12.40;99.90
64209;DHT22;50527;52.414;13.226;2022-09-13T05:08:36;12.40;99.90
64209;DHT22;50527;52.414;13.226;2022-09-13T05:11:02;12.50;99.90
64209;DHT22;50527;52.414;13.226;2022-09-13T05:13:27;12.50;99.90
64209;DHT22;50527;52.414;13.226;2022-09-13T05:16:01;12.60;99.90
64209;DHT22;50527;52.414;13.226;2022-09-13T05:18:30;12.70;99.90
64209;DHT22;50527;52.414;13.226;2022-09-13T05:20:57;12.80;99.90
64209;DHT22;50527;52.414;13.226;2022-09-13T05:23:24;12.80;99.90
64209;DHT22;50527;52.414;13.226;2022-09-13T05:26:00;12.90;99.90
64209;DHT22;50527;52.414;13.226;2022-09-13T05:28:28;13.00;99.90
64209;DHT22;50527;52.414;13.226;2022-09-13T05:34:00;13.10;99.90
64209;DHT22;50527;52.414;13.226;2022-09-13T05:36:26;13.10;99.90
64209;DHT22;50527;52.414;13.226;2022-09-13T05:38:53;13.20;99.90
64209;DHT22;50527;52.414;13.226;2022-09-13T05:41:19;13.20;99.90
64209;DHT22;50527;52.414;13.226;2022-09-13T05:43:44;13.20;99.90
64209;DHT22;50527;52.414;13.226;2022-09-13T05:46:12;13.20;99.90
64209;DHT22;50527;52.414;13.226;2022-09-13T05:48:39;13.20;99.90
64209;DHT22;50527;52.414;13.226;2022-09-13T05:51:07;13.30;99.90
64209;DHT22;50527;52.414;13.226;2022-09-13T05:53:35;13.20;99.90
64209;DHT22;50527;52.414;13.226;2022-09-13T05:56:02;13.30;99.90
64209;DHT22;50527;52.414;13.226;2022-09-13T05:58:28;13.20;99.90
64209;DHT22;50527;52.414;13.226;2022-09-13T06:00:54;13.20;99.90
64209;DHT22;50527;52.414;13.226;2022-09-13T06:03:21;13.20;99.90
64209;DHT22;50527;52.414;13.226;2022-09-13T06:05:47;13.20;99.90
64209;DHT22;50527;52.414;13.226;2022-09-13T06:08:12;13.30;99.90
64209;DHT22;50527;52.414;13.226;2022-09-13T06:10:38;13.20;99.90
64209;DHT22;50527;52.414;13.226;2022-09-13T06:13:03;13.20;99.90
64209;DHT22;50527;52.414;13.226;2022-09-13T06:15:28;13.20;99.90
64209;DHT22;50527;52.414;13.226;2022-09-13T06:17:54;13.20;99.90
64209;DHT22;50527;52.414;13.226;2022-09-13T06:20:19;13.20;99.90
64209;DHT22;50527;52.414;13.226;2022-09-13T06:22:47;13.20;99.90
64209;DHT22;50527;52.414;13.226;2022-09-13T06:25:12;13.20;99.90
64209;DHT22;50527;52.414;13.226;2022-09-13T06:27:37;13.20;99.90
64209;DHT22;50527;52.414;13.226;2022-09-13T06:30:03;13.20;99.90
64209;DHT22;50527;52.414;13.226;2022-09-13T06:32:29;13.20;99.90
64209;DHT22;50527;52.414;13.226;2022-09-13T06:34:55;13.10;99.90
64209;DHT22;50527;52.414;13.226;2022-09-13T06:37:21;13.20;99.90
64209;DHT22;50527;52.414;13.226;2022-09-13T06:39:46;13.20;99.90
64209;DHT22;50527;52.414;13.226;2022-09-13T06:42:12;13.20;99.90
64209;DHT22;50527;52.414;13.226;2022-09-13T06:44:37;13.20;99.90
64209;DHT22;50527;52.414;13.226;2022-09-13T06:47:02;13.30;99.90
64209;DHT22;50527;52.414;13.226;2022-09-13T06:49:28;13.30;99.90
64209;DHT22;50527;52.414;13.226;2022-09-13T06:51:56;13.30;99.90
64209;DHT22;50527;52.414;13.226;2022-09-13T06:54:21;13.40;99.90
64209;DHT22;50527;52.414;13.226;2022-09-13T06:56:47;13.50;99.90
64209;DHT22;50527;52.414;13.226;2022-09-13T06:59:12;13.50;99.90
64209;DHT22;50527;52.414;13.226;2022-09-13T07:01:42;13.60;99.90
64209;DHT22;50527;52.414;13.226;2022-09-13T07:04:14;13.70;99.90
64209;DHT22;50527;52.414;13.226;2022-09-13T07:06:42;13.70;99.90
64209;DHT22;50527;52.414;13.226;2022-09-13T07:09:11;13.80;99.90
64209;DHT22;50527;52.414;13.226;2022-09-13T07:11:38;13.90;99.90
64209;DHT22;50527;52.414;13.226;2022-09-13T07:14:05;14.00;99.90
64209;DHT22;50527;52.414;13.226;2022-09-13T07:16:32;14.00;99.90
64209;DHT22;50527;52.414;13.226;2022-09-13T07:18:59;14.10;99.90
64209;DHT22;50527;52.414;13.226;2022-09-13T07:21:26;14.10;99.90
64209;DHT22;50527;52.414;13.226;2022-09-13T07:23:55;14.10;99.90
64209;DHT22;50527;52.414;13.226;2022-09-13T07:26:21;14.20;99.90
64209;DHT22;50527;52.414;13.226;2022-09-13T07:28:49;14.20;99.90
64209;DHT22;50527;52.414;13.226;2022-09-13T07:31:18;14.20;99.90
64209;DHT22;50527;52.414;13.226;2022-09-13T07:33:51;14.30;99.90
64209;DHT22;50527;52.414;13.226;2022-09-13T07:36:17;14.30;99.90
64209;DHT22;50527;52.414;13.226;2022-09-13T07:38:43;14.50;99.90
64209;DHT22;50527;52.414;13.226;2022-09-13T07:41:12;14.50;99.90
64209;DHT22;50527;52.414;13.226;2022-09-13T07:43:38;14.50;99.90
64209;DHT22;50527;52.414;13.226;2022-09-13T07:46:06;14.60;99.90
64209;DHT22;50527;52.414;13.226;2022-09-13T07:48:34;14.60;99.90
64209;DHT22;50527;52.414;13.226;2022-09-13T07:51:05;14.70;99.90
64209;DHT22;50527;52.414;13.226;2022-09-13T07:53:32;14.70;99.90
64209;DHT22;50527;52.414;13.226;2022-09-13T07:56:18;14.70;99.90
64209;DHT22;50527;52.414;13.226;2022-09-13T07:58:45;14.80;99.90
64209;DHT22;50527;52.414;13.226;2022-09-13T08:01:17;14.90;99.90
64209;DHT22;50527;52.414;13.226;2022-09-13T08:03:43;15.00;99.90
64209;DHT22;50527;52.414;13.226;2022-09-13T08:06:09;15.00;99.90
64209;DHT22;50527;52.414;13.226;2022-09-13T08:08:35;15.00;99.90
64209;DHT22;50527;52.414;13.226;2022-09-13T08:11:04;15.00;99.90
64209;DHT22;50527;52.414;13.226;2022-09-13T08:13:29;15.00;99.90
64209;DHT22;50527;52.414;13.226;2022-09-13T08:16:00;15.00;99.90
64209;DHT22;50527;52.414;13.226;2022-09-13T08:18:27;15.00;99.90
64209;DHT22;50527;52.414;13.226;2022-09-13T08:20:55;15.10;99.90
64209;DHT22;50527;52.414;13.226;2022-09-13T08:23:21;15.20;99.90
64209;DHT22;50527;52.414;13.226;2022-09-13T08:25:47;15.30;99.90
64209;DHT22;50527;52.414;13.226;2022-09-13T08:28:17;15.30;99.90
64209;DHT22;50527;52.414;13.226;2022-09-13T08:30:43;15.30;99.90
64209;DHT22;50527;52.414;13.226;2022-09-13T08:33:10;15.30;99.90
64209;DHT22;50527;52.414;13.226;2022-09-13T08:35:36;15.40;99.90
64209;DHT22;50527;52.414;13.226;2022-09-13T08:38:03;15.50;99.90
64209;DHT22;50527;52.414;13.226;2022-09-13T08:40:32;15.60;99.90
64209;DHT22;50527;52.414;13.226;2022-09-13T08:45:34;15.90;99.90
64209;DHT22;50527;52.414;13.226;2022-09-13T08:48:13;16.00;99.90
64209;DHT22;50527;52.414;13.226;2022-09-13T08:50:41;16.30;99.90
64209;DHT22;50527;52.414;13.226;2022-09-13T08:53:24;16.50;99.90
64209;DHT22;50527;52.414;13.226;2022-09-13T09:01:12;16.80;99.90
64209;DHT22;50527;52.414;13.226;2022-09-13T09:03:50;17.00;99.90
64209;DHT22;50527;52.414;13.226;2022-09-13T09:06:18;17.10;99.90
64209;DHT22;50527;52.414;13.226;2022-09-13T09:08:51;17.30;99.90
64209;DHT22;50527;52.414;13.226;2022-09-13T09:13:52;17.80;99.40
64209;DHT22;50527;52.414;13.226;2022-09-13T09:16:50;18.00;94.90
64209;DHT22;50527;52.414;13.226;2022-09-13T09:19:26;18.20;95.50
64209;DHT22;50527;52.414;13.226;2022-09-13T09:21:54;18.60;93.60
64209;DHT22;50527;52.414;13.226;2022-09-13T09:24:24;18.80;93.70
64209;DHT22;50527;52.414;13.226;2022-09-13T09:26:52;18.80;93.60
64209;DHT22;50527;52.414;13.226;2022-09-13T09:29:19;18.90;93.20
64209;DHT22;50527;52.414;13.226;2022-09-13T09:32:15;19.00;93.00
64209;DHT22;50527;52.414;13.226;2022-09-13T09:35:09;19.00;92.30
64209;DHT22;50527;52.414;13.226;2022-09-13T09:37:37;19.30;91.90
64209;DHT22;50527;52.414;13.226;2022-09-13T09:40:05;19.40;91.90
64209;DHT22;50527;52.414;13.226;2022-09-13T09:42:46;19.50;90.60
64209;DHT22;50527;52.414;13.226;2022-09-13T09:45:25;19.60;89.90
64209;DHT22;50527;52.414;13.226;2022-09-13T09:47:52;20.00;88.00
64209;DHT22;50527;52.414;13.226;2022-09-13T09:50:22;20.40;83.90
64209;DHT22;50527;52.414;13.226;2022-09-13T09:53:07;20.60;82.00
64209;DHT22;50527;52.414;13.226;2022-09-13T09:55:48;20.80;81.70
64209;DHT22;50527;52.414;13.226;2022-09-13T09:58:16;20.90;79.50
64209;DHT22;50527;52.414;13.226;2022-09-13T10:00:56;20.90;79.40
64209;DHT22;50527;52.414;13.226;2022-09-13T10:03:27;20.70;81.90
64209;DHT22;50527;52.414;13.226;2022-09-13T10:06:10;20.70;83.40
64209;DHT22;50527;52.414;13.226;2022-09-13T10:08:41;20.50;82.40
64209;DHT22;50527;52.414;13.226;2022-09-13T10:11:08;20.30;83.60
64209;DHT22;50527;52.414;13.226;2022-09-13T10:13:34;20.30;86.80
64209;DHT22;50527;52.414;13.226;2022-09-13T10:16:24;20.30;85.60
64209;DHT22;50527;52.414;13.226;2022-09-13T10:18:50;20.30;85.40
64209;DHT22;50527;52.414;13.226;2022-09-13T10:23:42;20.50;84.10
64209;DHT22;50527;52.414;13.226;2022-09-13T10:26:22;20.60;83.80
64209;DHT22;50527;52.414;13.226;2022-09-13T10:29:07;20.70;81.60
64209;DHT22;50527;52.414;13.226;2022-09-13T10:31:46;20.70;79.70
64209;DHT22;50527;52.414;13.226;2022-09-13T10:34:24;20.70;79.30
64209;DHT22;50527;52.414;13.226;2022-09-13T10:37:03;20.70;79.20
64209;DHT22;50527;52.414;13.226;2022-09-13T10:39:33;20.80;78.40
64209;DHT22;50527;52.414;13.226;2022-09-13T10:42:06;20.70;78.80
64209;DHT22;50527;52.414;13.226;2022-09-13T10:47:10;20.60;80.20
64209;DHT22;50527;52.414;13.226;2022-09-13T10:49:44;20.50;80.10
64209;DHT22;50527;52.414;13.226;2022-09-13T10:52:31;20.40;80.90
64209;DHT22;50527;52.414;13.226;2022-09-13T10:57:46;20.10;83.50
64209;DHT22;50527;52.414;13.226;2022-09-13T11:00:15;19.90;85.30
64209;DHT22;50527;52.414;13.226;2022-09-13T11:08:55;19.50;90.50
64209;DHT22;50527;52.414;13.226;2022-09-13T11:11:35;19.30;92.50
64209;DHT22;50527;52.414;13.226;2022-09-13T11:20:09;18.80;98.70
64209;DHT22;50527;52.414;13.226;2022-09-13T11:22:48;18.60;99.90
64209;DHT22;50527;52.414;13.226;2022-09-13T11:25:37;18.40;99.90
64209;DHT22;50527;52.414;13.226;2022-09-13T11:31:22;18.20;99.90
64209;DHT22;50527;52.414;13.226;2022-09-13T11:34:10;18.10;99.90
64209;DHT22;50527;52.414;13.226;2022-09-13T11:39:44;17.90;99.90
64209;DHT22;50527;52.414;13.226;2022-09-13T11:42:28;17.90;99.90
64209;DHT22;50527;52.414;13.226;2022-09-13T11:45:21;17.80;99.90
64209;DHT22;50527;52.414;13.226;2022-09-13T11:50:35;17.70;99.90
64209;DHT22;50527;52.414;13.226;2022-09-13T11:53:10;17.70;99.90
64209;DHT22;50527;52.414;13.226;2022-09-13T11:55:42;17.60;99.90
64209;DHT22;50527;52.414;13.226;2022-09-13T11:58:14;17.60;99.90
64209;DHT22;50527;52.414;13.226;2022-09-13T12:00:48;17.60;99.90
64209;DHT22;50527;52.414;13.226;2022-09-13T12:03:30;17.60;99.90
64209;DHT22;50527;52.414;13.226;2022-09-13T12:06:03;17.60;99.90
64209;DHT22;50527;52.414;13.226;2022-09-13T12:08:31;17.70;99.90
64209;DHT22;50527;52.414;13.226;2022-09-13T12:11:20;17.70;99.90
64209;DHT22;50527;52.414;13.226;2022-09-13T12:14:12;17.80;99.90
64209;DHT22;50527;52.414;13.226;2022-09-13T12:17:03;17.80;99.90
64209;DHT22;50527;52.414;13.226;2022-09-13T12:19:42;17.90;99.90
64209;DHT22;50527;52.414;13.226;2022-09-13T12:22:10;17.90;99.90
64209;DHT22;50527;52.414;13.226;2022-09-13T12:24:55;18.00;99.90
64209;DHT22;50527;52.414;13.226;2022-09-13T12:27:36;18.00;99.90
64209;DHT22;50527;52.414;13.226;2022-09-13T12:30:23;18.00;99.90
64209;DHT22;50527;52.414;13.226;2022-09-13T12:32:50;18.10;99.90
64209;DHT22;50527;52.414;13.226;2022-09-13T12:35:27;18.20;99.90
64209;DHT22;50527;52.414;13.226;2022-09-13T12:41:14;18.10;99.90
64209;DHT22;50527;52.414;13.226;2022-09-13T12:46:40;18.30;99.90
64209;DHT22;50527;52.414;13.226;2022-09-13T12:49:25;18.30;99.90
64209;DHT22;50527;52.414;13.226;2022-09-13T12:59:53;18.60;99.90
64209;DHT22;50527;52.414;13.226;2022-09-13T13:02:35;18.60;99.90
64209;DHT22;50527;52.414;13.226;2022-09-13T13:05:05;18.70;99.90
64209;DHT22;50527;52.414;13.226;2022-09-13T13:07:34;18.80;99.90
64209;DHT22;50527;52.414;13.226;2022-09-13T13:10:01;18.90;99.90
64209;DHT22;50527;52.414;13.226;2022-09-13T13:12:35;19.00;99.90
64209;DHT22;50527;52.414;13.226;2022-09-13T13:17:51;19.00;99.90
64209;DHT22;50527;52.414;13.226;2022-09-13T13:23:26;19.20;99.90
64209;DHT22;50527;52.414;13.226;2022-09-13T13:26:03;19.20;99.90
64209;DHT22;50527;52.414;13.226;2022-09-13T13:29:09;19.20;99.80
64209;DHT22;50527;52.414;13.226;2022-09-13T13:31:37;19.10;99.90
64209;DHT22;50527;52.414;13.226;2022-09-13T13:41:59;19.00;99.90
64209;DHT22;50527;52.414;13.226;2022-09-13T13:46:52;19.00;99.90
64209;DHT22;50527;52.414;13.226;2022-09-13T13:57:37;19.10;99.30
64209;DHT22;50527;52.414;13.226;2022-09-13T14:02:50;19.10;99.90
64209;DHT22;50527;52.414;13.226;2022-09-13T14:05:52;19.20;99.50
64209;DHT22;50527;52.414;13.226;2022-09-13T14:08:42;19.30;99.70
64209;DHT22;50527;52.414;13.226;2022-09-13T14:14:21;19.50;99.00
64209;DHT22;50527;52.414;13.226;2022-09-13T14:17:26;19.60;97.20
64209;DHT22;50527;52.414;13.226;2022-09-13T14:20:04;19.70;96.90
64209;DHT22;50527;52.414;13.226;2022-09-13T14:22:32;19.70;97.20
64209;DHT22;50527;52.414;13.226;2022-09-13T14:27:43;19.70;96.40
64209;DHT22;50527;52.414;13.226;2022-09-13T14:30:30;19.60;96.60
64209;DHT22;50527;52.414;13.226;2022-09-13T14:32:57;19.70;97.70
64209;DHT22;50527;52.414;13.226;2022-09-13T14:35:39;19.60;96.90
64209;DHT22;50527;52.414;13.226;2022-09-13T14:38:20;19.60;97.00
64209;DHT22;50527;52.414;13.226;2022-09-13T14:40:51;19.60;97.30
64209;DHT22;50527;52.414;13.226;2022-09-13T14:43:20;19.50;97.70
64209;DHT22;50527;52.414;13.226;2022-09-13T14:45:48;19.50;96.80
64209;DHT22;50527;52.414;13.226;2022-09-13T14:48:19;19.50;97.10
64209;DHT22;50527;52.414;13.226;2022-09-13T14:50:59;19.50;97.50
64209;DHT22;50527;52.414;13.226;2022-09-13T14:53:30;19.40;99.10
64209;DHT22;50527;52.414;13.226;2022-09-13T14:58:54;19.40;99.30
64209;DHT22;50527;52.414;13.226;2022-09-13T15:01:29;19.40;98.60
64209;DHT22;50527;52.414;13.226;2022-09-13T15:03:57;19.50;98.70
64209;DHT22;50527;52.414;13.226;2022-09-13T15:06:30;19.60;97.00
64209;DHT22;50527;52.414;13.226;2022-09-13T15:14:32;19.60;96.20
64209;DHT22;50527;52.414;13.226;2022-09-13T15:24:36;19.70;95.50
64209;DHT22;50527;52.414;13.226;2022-09-13T15:27:28;19.70;95.30
64209;DHT22;50527;52.414;13.226;2022-09-13T15:29:59;19.70;95.50
64209;DHT22;50527;52.414;13.226;2022-09-13T15:32:34;19.70;95.80
64209;DHT22;50527;52.414;13.226;2022-09-13T15:35:25;19.80;95.50
64209;DHT22;50527;52.414;13.226;2022-09-13T15:38:15;19.90;93.60
64209;DHT22;50527;52.414;13.226;2022-09-13T15:40:45;19.90;93.70
64209;DHT22;50527;52.414;13.226;2022-09-13T15:43:11;19.90;93.00
64209;DHT22;50527;52.414;13.226;2022-09-13T15:45:36;19.90;93.70
64209;DHT22;50527;52.414;13.226;2022-09-13T15:48:02;19.90;93.90
64209;DHT22;50527;52.414;13.226;2022-09-13T15:50:30;19.90;94.20
64209;DHT22;50527;52.414;13.226;2022-09-13T15:52:59;19.80;94.50
64209;DHT22;50527;52.414;13.226;2022-09-13T15:55:26;19.80;94.60
64209;DHT22;50527;52.414;13.226;2022-09-13T15:57:52;19.60;94.70
64209;DHT22;50527;52.414;13.226;2022-09-13T16:00:24;19.50;95.50
64209;DHT22;50527;52.414;13.226;2022-09-13T16:02:50;19.50;96.60
64209;DHT22;50527;52.414;13.226;2022-09-13T16:05:16;19.40;95.70
64209;DHT22;50527;52.414;13.226;2022-09-13T16:07:42;19.40;95.60
64209;DHT22;50527;52.414;13.226;2022-09-13T16:10:20;19.30;96.10
64209;DHT22;50527;52.414;13.226;2022-09-13T16:12:46;19.20;96.60
64209;DHT22;50527;52.414;13.226;2022-09-13T16:15:13;19.20;97.50
64209;DHT22;50527;52.414;13.226;2022-09-13T16:17:38;19.00;97.90
64209;DHT22;50527;52.414;13.226;2022-09-13T16:20:05;19.00;98.00
64209;DHT22;50527;52.414;13.226;2022-09-13T16:22:32;19.00;98.70
64209;DHT22;50527;52.414;13.226;2022-09-13T16:24:57;18.90;99.30
64209;DHT22;50527;52.414;13.226;2022-09-13T16:27:23;18.80;99.30
64209;DHT22;50527;52.414;13.226;2022-09-13T16:29:51;18.80;99.90
64209;DHT22;50527;52.414;13.226;2022-09-13T16:32:17;18.80;99.90
64209;DHT22;50527;52.414;13.226;2022-09-13T16:34:42;18.70;99.90
64209;DHT22;50527;52.414;13.226;2022-09-13T16:37:12;18.70;99.90
64209;DHT22;50527;52.414;13.226;2022-09-13T16:39:37;18.60;99.90
64209;DHT22;50527;52.414;13.226;2022-09-13T16:42:03;18.60;99.90
64209;DHT22;50527;52.414;13.226;2022-09-13T16:44:29;18.60;99.90
64209;DHT22;50527;52.414;13.226;2022-09-13T16:46:55;18.60;99.90
64209;DHT22;50527;52.414;13.226;2022-09-13T16:49:20;18.60;99.90
64209;DHT22;50527;52.414;13.226;2022-09-13T16:51:46;18.50;99.90
64209;DHT22;50527;52.414;13.226;2022-09-13T16:54:12;18.60;99.90
64209;DHT22;50527;52.414;13.226;2022-09-13T16:56:37;18.50;99.90
64209;DHT22;50527;52.414;13.226;2022-09-13T16:59:02;18.60;99.90
64209;DHT22;50527;52.414;13.226;2022-09-13T17:01:28;18.60;99.90
64209;DHT22;50527;52.414;13.226;2022-09-13T17:03:54;18.50;99.90
64209;DHT22;50527;52.414;13.226;2022-09-13T17:06:21;18.50;99.90
64209;DHT22;50527;52.414;13.226;2022-09-13T17:08:53;18.40;99.90
64209;DHT22;50527;52.414;13.226;2022-09-13T17:11:21;18.30;99.90
64209;DHT22;50527;52.414;13.226;2022-09-13T17:13:47;18.30;99.90
64209;DHT22;50527;52.414;13.226;2022-09-13T17:16:29;18.20;99.90
64209;DHT22;50527;52.414;13.226;2022-09-13T17:18:57;18.10;99.90
64209;DHT22;50527;52.414;13.226;2022-09-13T17:21:23;18.10;99.90
64209;DHT22;50527;52.414;13.226;2022-09-13T17:23:49;18.10;99.90
64209;DHT22;50527;52.414;13.226;2022-09-13T17:26:14;18.00;99.90
64209;DHT22;50527;52.414;13.226;2022-09-13T17:28:40;18.00;99.90
64209;DHT22;50527;52.414;13.226;2022-09-13T17:31:06;17.90;99.90
64209;DHT22;50527;52.414;13.226;2022-09-13T17:33:31;17.90;99.90
64209;DHT22;50527;52.414;13.226;2022-09-13T17:36:02;17.80;99.90
64209;DHT22;50527;52.414;13.226;2022-09-13T17:38:28;17.80;99.90
64209;DHT22;50527;52.414;13.226;2022-09-13T17:41:12;17.70;99.90
64209;DHT22;50527;52.414;13.226;2022-09-13T17:43:39;17.70;99.90
64209;DHT22;50527;52.414;13.226;2022-09-13T17:46:20;17.60;99.90
64209;DHT22;50527;52.414;13.226;2022-09-13T17:48:47;17.60;99.90
64209;DHT22;50527;52.414;13.226;2022-09-13T17:51:14;17.50;99.90
64209;DHT22;50527;52.414;13.226;2022-09-13T17:53:51;17.50;99.90